createdAt,value
2022-08-17T00:00:16.575Z,0
2022-08-17T00:05:46.551Z,0.88715
2022-08-17T00:10:48.622Z,0.88715
2022-08-17T00:15:50.496Z,0.88715
2022-08-17T00:20:52.135Z,0.88715
2022-08-17T00:25:53.595Z,0.88715
2022-08-17T00:30:55.110Z,0.88715
2022-08-17T00:35:57.086Z,0
2022-08-17T00:40:59.061Z,0
2022-08-17T00:46:00.880Z,0
2022-08-17T00:51:02.396Z,0.88715
2022-08-17T00:56:03.871Z,0
2022-08-17T01:01:05.437Z,0
2022-08-17T01:06:07.204Z,0.88715
2022-08-17T01:11:08.778Z,0
2022-08-17T01:16:10.217Z,0
2022-08-17T01:21:11.671Z,0.88715
2022-08-17T01:26:13.294Z,0
2022-08-17T01:31:14.813Z,0
2022-08-17T01:36:16.616Z,0
2022-08-17T01:41:18.044Z,0
2022-08-17T01:46:19.592Z,0.88715
2022-08-17T01:51:21.584Z,0
2022-08-17T01:56:23.149Z,0
2022-08-17T02:01:24.721Z,0
2022-08-17T02:06:28.157Z,0
2022-08-17T02:11:30.254Z,0
2022-08-17T02:16:37.441Z,0
2022-08-17T02:21:39.932Z,0.88715
2022-08-17T02:26:41.494Z,0.88715
2022-08-17T02:31:43.017Z,0.88715
2022-08-17T02:36:44.781Z,0
2022-08-17T02:41:46.193Z,0
2022-08-17T02:46:47.874Z,0
2022-08-17T02:51:49.619Z,0.88715
2022-08-17T02:56:51.198Z,0
2022-08-17T03:01:52.799Z,0
2022-08-17T03:06:54.666Z,0.88715
2022-08-17T03:11:56.144Z,0.88715
2022-08-17T03:16:57.732Z,0
2022-08-17T03:21:59.315Z,0
2022-08-17T03:27:00.892Z,0.88715
2022-08-17T03:32:02.372Z,0
2022-08-17T03:37:04.208Z,0
2022-08-17T03:42:05.743Z,0
2022-08-17T03:47:07.597Z,0.88715
2022-08-17T03:52:09.746Z,0.88715
2022-08-17T03:57:11.348Z,0.88715
2022-08-17T04:02:13.239Z,0.88715
2022-08-17T04:07:15.357Z,0
2022-08-17T04:12:17.284Z,0
2022-08-17T04:17:19.002Z,2.3237
2022-08-17T04:22:30.847Z,1.2444
2022-08-17T04:27:35.642Z,3.3184
2022-08-17T04:33:04.698Z,8.26225
2022-08-17T04:38:09.523Z,20.0652
2022-08-17T04:43:11.392Z,33.34375
2022-08-17T04:48:13.437Z,57.68745
2022-08-17T04:53:15.112Z,86.30965
2022-08-17T04:58:16.881Z,115.9644
2022-08-17T05:03:18.825Z,141.894
2022-08-17T05:08:20.918Z,178.64915
2022-08-17T05:13:22.838Z,224.38535
2022-08-17T05:18:24.815Z,261.8783
2022-08-17T05:23:26.853Z,297.9508
2022-08-17T05:28:37.006Z,333.23035
2022-08-17T05:33:44.305Z,358.44115
2022-08-17T05:38:47.793Z,392.81745
2022-08-17T05:43:51.877Z,434.1097
2022-08-17T05:48:57.631Z,457.78975
2022-08-17T05:53:59.388Z,469.4824
2022-08-17T05:59:01.168Z,481.3595
2022-08-17T06:04:03.000Z,495.13625
2022-08-17T06:09:05.936Z,530.01075
2022-08-17T06:14:07.995Z,569.7171
2022-08-17T06:19:09.889Z,598.8375
2022-08-17T06:24:11.879Z,647.0457
2022-08-17T06:29:18.804Z,690.9754
2022-08-17T06:34:20.875Z,721.2025
2022-08-17T06:39:22.971Z,743.6104
2022-08-17T06:44:49.753Z,771.56895
2022-08-17T06:49:55.387Z,795.6179
2022-08-17T06:54:57.722Z,817.82235
2022-08-17T06:59:59.478Z,828.59275
2022-08-17T07:05:01.113Z,871.9691
2022-08-17T07:10:03.072Z,888.78835
2022-08-17T07:15:04.526Z,915.71435
2022-08-17T07:20:06.320Z,951.3818
2022-08-17T07:25:08.160Z,963.07445
2022-08-17T07:30:10.831Z,981.31415
2022-08-17T07:35:12.945Z,1012.88755
2022-08-17T07:40:17.436Z,1021.1498
2022-08-17T07:45:19.065Z,1063.7522
2022-08-17T07:50:23.988Z,1075.8879
2022-08-17T07:55:27.451Z,1090.3473
2022-08-17T08:00:32.813Z,1138.8331
2022-08-17T08:05:49.391Z,1152.62885
2022-08-17T08:10:53.044Z,1210.3353
2022-08-17T08:15:54.953Z,1220.7748
2022-08-17T08:20:56.790Z,1206.33625
2022-08-17T08:25:58.803Z,1329.4942
2022-08-17T08:31:00.284Z,1270.75705
2022-08-17T08:36:02.092Z,1346.88765
2022-08-17T08:41:04.251Z,1389.85895
2022-08-17T08:46:06.255Z,1416.69365
2022-08-17T08:51:08.581Z,1404.8184
2022-08-17T08:56:12.704Z,1201.1999
2022-08-17T09:01:16.935Z,1425.86285
2022-08-17T09:06:37.378Z,1488.03225
2022-08-17T09:12:01.398Z,1560.47385
2022-08-17T09:17:05.182Z,1564.9748
2022-08-17T09:22:06.953Z,1652.90835
2022-08-17T09:27:08.909Z,1721.8644
2022-08-17T09:32:10.673Z,1700.63735
2022-08-17T09:37:12.147Z,1781.80325
2022-08-17T09:42:14.046Z,1801.3341
2022-08-17T09:47:15.834Z,1845.20865
2022-08-17T09:52:18.017Z,1878.5714
2022-08-17T09:57:29.803Z,1946.8638
2022-08-17T10:02:32.051Z,1953.7246
2022-08-17T10:07:34.017Z,2046.04695
2022-08-17T10:12:35.759Z,2045.1437
2022-08-17T10:17:39.714Z,2083.50375
2022-08-17T10:22:41.127Z,2120.0383
2022-08-17T10:27:43.880Z,2147.3332
2022-08-17T10:32:45.907Z,2209.29915
2022-08-17T10:37:47.395Z,2195.85515
2022-08-17T10:42:49.127Z,2346.27
2022-08-17T10:47:55.585Z,2333.4345
2022-08-17T10:52:58.370Z,2348.64885
2022-08-17T10:57:59.855Z,2431.82285
2022-08-17T11:03:01.303Z,2473.8149
2022-08-17T11:08:02.777Z,2520.0493
2022-08-17T11:13:06.485Z,2554.9048
2022-08-17T11:18:07.952Z,2570.98625
2022-08-17T11:23:09.405Z,2625.90695
2022-08-17T11:28:11.294Z,2581.5342
2022-08-17T11:33:12.900Z,2632.0471
2022-08-17T11:38:16.456Z,2613.3282
2022-08-17T11:43:19.169Z,2639.03535
2022-08-17T11:48:28.277Z,2664.33745
2022-08-17T11:53:30.346Z,2687.07625
2022-08-17T11:58:31.892Z,2701.2752
2022-08-17T12:03:33.558Z,2713.8331
2022-08-17T12:08:35.297Z,2715.34485
2022-08-17T12:13:39.821Z,2702.34205
2022-08-17T12:18:42.162Z,2676.8175
2022-08-17T12:23:44.278Z,2678.7343
2022-08-17T12:28:46.063Z,2701.50925
2022-08-17T12:33:47.868Z,2659.8291
2022-08-17T12:38:49.489Z,2629.2141
2022-08-17T12:43:51.332Z,2632.2376
2022-08-17T12:48:59.201Z,2615.65795
2022-08-17T12:54:01.322Z,2581.0782
2022-08-17T12:59:03.180Z,2547.71545
2022-08-17T13:04:05.024Z,2529.36545
2022-08-17T13:09:06.769Z,2511.99285
2022-08-17T13:14:08.992Z,2437.6706
2022-08-17T13:19:10.957Z,2415.94535
2022-08-17T13:24:13.012Z,2316.4123
2022-08-17T13:29:15.110Z,2234.63975
2022-08-17T13:34:16.744Z,2198.78785
2022-08-17T13:39:20.227Z,2109.84075
2022-08-17T13:44:22.588Z,2044.9426
2022-08-17T13:49:24.489Z,1960.82735
2022-08-17T13:54:43.286Z,1895.9292
2022-08-17T13:59:52.886Z,1821.60695
2022-08-17T14:04:56.878Z,1761.54065
2022-08-17T14:09:58.835Z,1686.42545
2022-08-17T14:15:00.861Z,1614.00285
2022-08-17T14:20:02.512Z,1543.9591
2022-08-17T14:25:04.021Z,1454.6621
2022-08-17T14:30:05.921Z,1350.2972
2022-08-17T14:35:07.594Z,1282.6513
2022-08-17T14:40:09.294Z,1139.59545
2022-08-17T14:45:32.142Z,1009.1355
2022-08-17T14:50:35.503Z,845.5714
2022-08-17T14:55:37.350Z,702.01735
2022-08-17T15:00:38.984Z,538.1205
2022-08-17T15:05:40.782Z,416.2537
2022-08-17T15:10:42.357Z,300.56505
2022-08-17T15:15:44.112Z,214.2154
2022-08-17T15:20:45.852Z,166.63165
2022-08-17T15:25:47.470Z,118.0999
2022-08-17T15:30:49.017Z,106.69045
2022-08-17T15:35:50.483Z,90.12795
2022-08-17T15:40:51.916Z,62.0401
2022-08-17T15:45:59.816Z,37.5671
2022-08-17T15:51:01.988Z,16.70895
2022-08-17T15:56:03.730Z,5.6887
2022-08-17T16:01:17.028Z,3.7332
2022-08-17T16:06:21.394Z,1.24435
2022-08-17T16:11:23.153Z,0.47405
2022-08-17T16:16:24.798Z,0
2022-08-17T16:21:26.612Z,0.88715
2022-08-17T16:26:28.411Z,0.88715
2022-08-17T16:31:30.302Z,0.88715
2022-08-17T16:36:31.837Z,0
2022-08-17T16:41:33.884Z,0
2022-08-17T16:46:35.871Z,0.88715
2022-08-17T16:51:37.641Z,0
2022-08-17T16:56:39.380Z,0
2022-08-17T17:01:41.361Z,0.88715
2022-08-17T17:06:42.763Z,0
2022-08-17T17:11:44.439Z,0
2022-08-17T17:16:46.453Z,0
2022-08-17T17:21:48.006Z,0
2022-08-17T17:26:49.476Z,0.88715
2022-08-17T17:31:51.272Z,0
2022-08-17T17:36:52.837Z,0
2022-08-17T17:41:54.373Z,0.88715
2022-08-17T17:46:56.295Z,0.88715
2022-08-17T17:52:11.126Z,0
2022-08-17T17:57:14.556Z,0
2022-08-17T18:02:16.627Z,0.88715
2022-08-17T18:07:18.409Z,0.88715
2022-08-17T18:12:20.191Z,0
2022-08-17T18:17:22.352Z,0
2022-08-17T18:22:24.224Z,0
2022-08-17T18:27:25.861Z,0
2022-08-17T18:32:27.617Z,0.88715
2022-08-17T18:37:29.016Z,0.88715
2022-08-17T18:42:31.011Z,0
2022-08-17T18:47:33.305Z,0
2022-08-17T18:52:34.854Z,0
2022-08-17T18:57:36.932Z,0
2022-08-17T19:02:45.583Z,0
2022-08-17T19:07:47.826Z,0
2022-08-17T19:12:49.339Z,0
2022-08-17T19:17:51.321Z,0
2022-08-17T19:22:53.318Z,0
2022-08-17T19:27:57.882Z,0
2022-08-17T19:33:00.141Z,0
2022-08-17T19:38:01.986Z,0
2022-08-17T19:43:03.774Z,0
2022-08-17T19:48:05.861Z,0
2022-08-17T19:53:07.726Z,0
2022-08-17T19:58:09.501Z,0
2022-08-17T20:03:16.405Z,0.88715
2022-08-17T20:08:18.841Z,0
2022-08-17T20:13:33.497Z,0
2022-08-17T20:18:36.087Z,0
2022-08-17T20:23:37.529Z,0
2022-08-17T20:28:39.175Z,0
2022-08-17T20:33:40.871Z,0
2022-08-17T20:38:42.315Z,0
2022-08-17T20:43:43.718Z,0
2022-08-17T20:48:45.630Z,0
2022-08-17T20:53:47.564Z,0.88715
2022-08-17T20:58:49.110Z,0
2022-08-17T21:03:51.865Z,0
2022-08-17T21:08:53.740Z,0
2022-08-17T21:13:55.819Z,0.88715
2022-08-17T21:18:57.830Z,0
2022-08-17T21:23:59.303Z,0
2022-08-17T21:29:01.683Z,0.88715
2022-08-17T21:34:32.739Z,0
2022-08-17T21:39:34.410Z,0.88715
2022-08-17T21:44:36.223Z,0
2022-08-17T21:49:38.184Z,0
2022-08-17T21:54:39.934Z,0
2022-08-17T21:59:41.516Z,0.88715
2022-08-17T22:04:43.145Z,0
2022-08-17T22:09:44.728Z,0
2022-08-17T22:14:52.606Z,0.88715
2022-08-17T22:19:55.996Z,0
2022-08-17T22:24:57.848Z,0.88715
2022-08-17T22:29:59.646Z,0
2022-08-17T22:35:01.566Z,0
2022-08-17T22:40:03.153Z,0.88715
2022-08-17T22:45:05.008Z,0
2022-08-17T22:50:06.980Z,0
2022-08-17T22:55:09.146Z,0
2022-08-17T23:00:11.843Z,0
2022-08-17T23:05:14.355Z,0
2022-08-17T23:10:16.145Z,0.88715
2022-08-17T23:15:17.980Z,0
2022-08-17T23:20:20.117Z,0
2022-08-17T23:25:21.765Z,0
2022-08-17T23:30:23.560Z,0.88715
2022-08-17T23:35:39.082Z,0
2022-08-17T23:40:42.194Z,0
2022-08-17T23:45:43.663Z,0
2022-08-17T23:50:45.768Z,0.88715
2022-08-17T23:55:47.536Z,0.88715
